createdAt,value
2018-04-11T00:01:12.310Z,11.70
2018-04-11T00:03:39.754Z,11.57
2018-04-11T00:06:07.226Z,11.13
2018-04-11T00:08:35.442Z,11.40
2018-04-11T00:11:02.911Z,11.40
2018-04-11T00:13:30.356Z,11.53
2018-04-11T00:15:57.796Z,10.80
2018-04-11T00:18:25.263Z,11.27
2018-04-11T00:20:52.699Z,11.80
2018-04-11T00:23:20.152Z,11.50
2018-04-11T00:25:47.594Z,11.57
2018-04-11T00:28:15.826Z,11.63
2018-04-11T00:30:43.265Z,10.80
2018-04-11T00:33:10.712Z,10.93
2018-04-11T00:35:38.194Z,11.23
2018-04-11T00:38:05.625Z,10.27
2018-04-11T00:40:33.105Z,11.17
2018-04-11T00:43:00.570Z,10.67
2018-04-11T00:45:28.032Z,10.53
2018-04-11T00:47:55.462Z,9.70
2018-04-11T00:50:22.906Z,11.17
2018-04-11T00:55:53.339Z,9.93
2018-04-11T00:58:20.813Z,11.20
2018-04-11T01:00:48.271Z,10.80
2018-04-11T01:03:15.722Z,10.73
2018-04-11T01:05:43.165Z,9.90
2018-04-11T01:08:10.637Z,10.73
2018-04-11T01:10:38.106Z,10.53
2018-04-11T01:13:05.558Z,10.93
2018-04-11T01:15:33.025Z,10.60
2018-04-11T01:18:01.247Z,10.10
2018-04-11T01:20:28.698Z,11.43
2018-04-11T01:22:56.178Z,10.13
2018-04-11T01:25:23.614Z,10.83
2018-04-11T01:27:51.101Z,10.30
2018-04-11T01:30:18.559Z,10.77
2018-04-11T01:32:46.001Z,10.43
2018-04-11T01:35:13.453Z,10.70
2018-04-11T01:37:40.917Z,10.57
2018-04-11T01:40:08.381Z,10.63
2018-04-11T01:42:35.857Z,10.67
2018-04-11T01:45:03.293Z,9.93
2018-04-11T01:47:31.550Z,10.40
2018-04-11T01:49:58.996Z,9.53
2018-04-11T01:52:26.461Z,10.17
2018-04-11T01:54:53.918Z,10.53
2018-04-11T01:57:21.381Z,9.40
2018-04-11T01:59:48.867Z,9.57
2018-04-11T02:02:16.324Z,10.10
2018-04-11T02:04:43.789Z,9.60
2018-04-11T02:07:11.241Z,9.53
2018-04-11T02:09:38.698Z,9.40
2018-04-11T02:12:06.215Z,9.03
2018-04-11T02:14:33.637Z,9.30
2018-04-11T02:17:01.970Z,9.47
2018-04-11T02:19:29.432Z,8.60
2018-04-11T02:21:56.889Z,8.83
2018-04-11T02:24:24.374Z,9.70
2018-04-11T02:26:51.835Z,9.33
2018-04-11T02:29:19.308Z,9.53
2018-04-11T02:31:46.761Z,9.37
2018-04-11T02:34:15.016Z,8.97
2018-04-11T02:36:42.491Z,8.33
2018-04-11T02:39:10.707Z,9.33
2018-04-11T02:41:38.190Z,9.23
2018-04-11T02:44:05.640Z,8.40
2018-04-11T02:46:33.119Z,8.70
2018-04-11T02:49:00.585Z,8.83
2018-04-11T02:51:28.841Z,10.17
2018-04-11T02:53:56.321Z,9.17
2018-04-11T02:56:24.565Z,9.60
2018-04-11T02:58:52.205Z,9.07
2018-04-11T03:01:19.700Z,9.63
2018-04-11T03:03:47.168Z,7.77
2018-04-11T03:06:14.684Z,9.80
2018-04-11T03:08:42.997Z,9.37
2018-04-11T03:11:10.538Z,8.53
2018-04-11T03:13:38.001Z,9.07
2018-04-11T03:16:05.748Z,9.83
2018-04-11T03:18:33.196Z,9.10
2018-04-11T03:21:00.684Z,9.80
2018-04-11T03:23:28.140Z,9.40
2018-04-11T03:25:55.640Z,10.60
2018-04-11T03:28:23.097Z,9.50
2018-04-11T03:30:50.686Z,9.50
2018-04-11T03:33:18.916Z,9.63
2018-04-11T03:35:47.188Z,10.03
2018-04-11T03:38:14.644Z,10.37
2018-04-11T03:40:42.108Z,10.03
2018-04-11T03:43:10.383Z,10.93
2018-04-11T03:45:37.851Z,10.17
2018-04-11T03:48:06.116Z,10.77
2018-04-11T03:50:33.576Z,10.37
2018-04-11T03:53:01.180Z,9.93
2018-04-11T03:55:28.640Z,10.23
2018-04-11T03:57:56.148Z,11.23
2018-04-11T04:00:25.528Z,10.47
2018-04-11T04:02:53.005Z,10.63
2018-04-11T04:05:21.248Z,10.37
2018-04-11T04:07:48.787Z,11.13
2018-04-11T04:10:16.223Z,10.33
2018-04-11T04:12:43.792Z,11.43
2018-04-11T04:15:23.020Z,11.37
2018-04-11T04:18:02.335Z,10.67
2018-04-11T04:20:36.653Z,10.67
2018-04-11T04:23:04.106Z,11.10
2018-04-11T04:25:31.584Z,10.87
2018-04-11T04:27:59.041Z,11.43
2018-04-11T04:30:26.530Z,11.03
2018-04-11T04:32:54.173Z,11.50
2018-04-11T04:35:21.617Z,11.40
2018-04-11T04:37:49.115Z,10.80
2018-04-11T04:40:16.576Z,12.93
2018-04-11T04:42:44.049Z,11.67
2018-04-11T04:45:11.539Z,12.20
2018-04-11T04:47:38.984Z,11.90
2018-04-11T04:50:06.496Z,11.50
2018-04-11T04:52:34.002Z,11.97
2018-04-11T04:55:02.248Z,11.83
2018-04-11T04:57:29.739Z,12.50
2018-04-11T04:59:57.209Z,12.03
2018-04-11T05:02:24.707Z,12.07
2018-04-11T05:04:52.189Z,12.90
2018-04-11T05:07:20.464Z,12.33
2018-04-11T05:09:47.947Z,12.40
2018-04-11T05:12:16.196Z,13.33
2018-04-11T05:14:43.676Z,12.73
2018-04-11T05:17:12.260Z,13.37
2018-04-11T05:19:39.728Z,12.17
2018-04-11T05:22:07.185Z,12.83
2018-04-11T05:24:34.672Z,14.30
2018-04-11T05:27:02.920Z,13.23
2018-04-11T05:29:30.521Z,12.27
2018-04-11T05:31:58.003Z,12.03
2018-04-11T05:37:30.496Z,12.23
2018-04-11T05:39:57.985Z,12.77
2018-04-11T05:42:25.461Z,12.97
2018-04-11T05:44:52.992Z,12.73
2018-04-11T05:47:20.469Z,12.63
2018-04-11T05:49:47.936Z,11.97
2018-04-11T05:52:15.433Z,13.07
2018-04-11T05:54:42.974Z,13.07
2018-04-11T05:57:11.209Z,13.07
2018-04-11T05:59:38.678Z,12.70
2018-04-11T06:02:06.139Z,13.43
2018-04-11T06:04:33.631Z,12.97
2018-04-11T06:07:01.102Z,12.47
2018-04-11T06:09:28.604Z,13.97
2018-04-11T06:11:56.081Z,12.73
2018-04-11T06:14:23.532Z,13.20
2018-04-11T06:16:51.015Z,13.43
2018-04-11T06:19:18.524Z,13.40
2018-04-11T06:21:46.001Z,13.50
2018-04-11T06:24:13.460Z,12.97
2018-04-11T06:26:40.964Z,14.07
2018-04-11T06:29:08.429Z,13.23
2018-04-11T06:31:36.680Z,14.43
2018-04-11T06:34:04.151Z,13.77
2018-04-11T06:36:31.652Z,13.80
2018-04-11T06:38:59.133Z,14.33
2018-04-11T06:41:26.576Z,14.27
2018-04-11T06:43:54.056Z,13.80
2018-04-11T06:46:21.564Z,15.17
2018-04-11T06:48:49.149Z,14.57
2018-04-11T06:51:16.624Z,15.43
2018-04-11T06:53:44.120Z,14.30
2018-04-11T06:56:11.608Z,14.83
2018-04-11T06:58:39.095Z,14.30
2018-04-11T07:01:06.580Z,14.87
2018-04-11T07:03:34.098Z,15.67
2018-04-11T07:06:01.557Z,16.03
2018-04-11T07:08:29.052Z,15.77
2018-04-11T07:10:56.526Z,15.13
2018-04-11T07:13:23.988Z,16.53
2018-04-11T07:15:52.304Z,15.80
2018-04-11T07:18:19.820Z,16.57
2018-04-11T07:20:47.286Z,14.90
2018-04-11T07:23:14.753Z,15.03
2018-04-11T07:25:43.029Z,15.37
2018-04-11T07:28:10.469Z,16.10
2018-04-11T07:30:37.961Z,16.07
2018-04-11T07:33:05.419Z,15.77
2018-04-11T07:35:32.905Z,15.87
2018-04-11T07:38:00.386Z,16.10
2018-04-11T07:40:27.865Z,16.20
2018-04-11T07:42:56.096Z,16.70
2018-04-11T07:45:24.346Z,16.93
2018-04-11T07:47:51.801Z,15.97
2018-04-11T07:50:19.272Z,16.53
2018-04-11T07:52:46.728Z,15.33
2018-04-11T07:55:14.184Z,15.70
2018-04-11T07:57:41.660Z,14.83
2018-04-11T08:00:09.112Z,14.83
2018-04-11T08:02:36.593Z,15.77
2018-04-11T08:05:04.092Z,15.77
2018-04-11T08:07:31.581Z,16.57
2018-04-11T08:09:59.028Z,16.03
2018-04-11T08:12:28.429Z,15.73
2018-04-11T08:14:55.931Z,15.47
2018-04-11T08:17:23.408Z,16.43
2018-04-11T08:19:51.850Z,16.77
2018-04-11T08:22:19.318Z,16.67
2018-04-11T08:24:46.764Z,17.63
2018-04-11T08:27:14.241Z,17.90
2018-04-11T08:29:41.748Z,17.20
2018-04-11T08:32:09.262Z,16.53
2018-04-11T08:34:36.716Z,17.80
2018-04-11T08:37:04.217Z,17.80
2018-04-11T08:39:31.681Z,16.37
2018-04-11T08:41:59.137Z,16.33
2018-04-11T08:44:29.160Z,16.63
2018-04-11T08:46:56.721Z,16.30
2018-04-11T08:49:24.189Z,15.27
2018-04-11T08:51:51.640Z,16.60
2018-04-11T08:54:19.176Z,15.97
2018-04-11T08:56:47.418Z,16.67
2018-04-11T08:59:14.930Z,16.33
2018-04-11T09:01:42.387Z,16.20
2018-04-11T09:04:09.876Z,15.57
2018-04-11T09:06:37.353Z,13.87
2018-04-11T09:09:05.629Z,16.17
2018-04-11T09:11:33.133Z,14.87
2018-04-11T09:14:01.356Z,14.33
2018-04-11T09:16:28.847Z,14.63
2018-04-11T09:18:56.376Z,15.97
2018-04-11T09:21:23.840Z,16.40
2018-04-11T09:23:51.289Z,15.43
2018-04-11T09:26:18.792Z,15.10
2018-04-11T09:28:47.050Z,15.10
2018-04-11T09:31:14.504Z,13.80
2018-04-11T09:33:41.991Z,14.20
2018-04-11T09:36:09.444Z,14.90
2018-04-11T09:38:37.712Z,14.33
2018-04-11T09:41:05.180Z,15.23
2018-04-11T09:43:33.440Z,16.33
2018-04-11T09:46:01.683Z,15.50
2018-04-11T09:48:29.905Z,14.60
2018-04-11T09:50:57.447Z,14.93
2018-04-11T09:53:24.921Z,15.50
2018-04-11T09:55:53.252Z,15.17
2018-04-11T09:58:20.761Z,15.77
2018-04-11T10:00:53.163Z,14.50
2018-04-11T10:03:22.549Z,14.70
2018-04-11T10:05:50.013Z,15.40
2018-04-11T10:08:17.500Z,14.50
2018-04-11T10:10:44.991Z,15.10
2018-04-11T10:13:12.440Z,16.13
2018-04-11T10:15:39.977Z,15.63
2018-04-11T10:18:07.455Z,15.70
2018-04-11T10:20:34.944Z,18.67
2018-04-11T10:23:02.406Z,17.13
2018-04-11T10:25:29.904Z,16.37
2018-04-11T10:27:57.380Z,17.67
2018-04-11T10:30:24.872Z,18.10
2018-04-11T10:32:52.357Z,18.33
2018-04-11T10:35:19.841Z,17.27
2018-04-11T10:37:47.312Z,18.10
2018-04-11T10:40:14.800Z,18.07
2018-04-11T10:42:43.062Z,18.00
2018-04-11T10:45:10.564Z,19.77
2018-04-11T10:47:38.096Z,20.30
2018-04-11T10:50:06.325Z,19.53
2018-04-11T10:52:33.835Z,19.27
2018-04-11T10:55:01.318Z,20.07
2018-04-11T10:57:28.813Z,18.70
2018-04-11T10:59:56.317Z,19.60
2018-04-11T11:02:23.772Z,19.60
2018-04-11T11:04:52.020Z,20.83
2018-04-11T11:07:19.476Z,21.20
2018-04-11T11:09:47.035Z,20.43
2018-04-11T11:12:14.446Z,21.17
2018-04-11T11:14:41.947Z,20.60
2018-04-11T11:17:09.431Z,20.20
2018-04-11T11:22:39.208Z,20.43
2018-04-11T11:25:06.681Z,19.80
2018-04-11T11:27:34.162Z,20.60
2018-04-11T11:30:01.648Z,19.63
2018-04-11T11:32:29.137Z,19.83
2018-04-11T11:34:56.629Z,21.30
2018-04-11T11:37:24.136Z,21.07
2018-04-11T11:39:51.596Z,20.13
2018-04-11T11:42:19.076Z,20.47
2018-04-11T11:44:46.591Z,20.77
2018-04-11T11:47:14.045Z,20.97
2018-04-11T11:49:42.316Z,20.07
2018-04-11T11:52:09.828Z,20.70
2018-04-11T11:54:38.049Z,20.70
2018-04-11T11:57:05.504Z,20.20
2018-04-11T11:59:33.014Z,18.70
2018-04-11T12:02:00.454Z,20.20
2018-04-11T12:04:27.937Z,19.07
2018-04-11T12:06:55.430Z,18.60
2018-04-11T12:09:22.896Z,19.97
2018-04-11T12:11:50.428Z,17.93
2018-04-11T12:14:17.886Z,16.73
2018-04-11T12:16:45.375Z,17.40
2018-04-11T12:19:13.596Z,17.43
2018-04-11T12:21:41.112Z,16.73
2018-04-11T12:24:08.575Z,16.73
2018-04-11T12:26:36.053Z,16.47
2018-04-11T12:29:04.292Z,16.67
2018-04-11T12:31:32.521Z,16.37
2018-04-11T12:33:59.996Z,16.13
2018-04-11T12:36:27.487Z,15.63
2018-04-11T12:38:54.960Z,15.60
2018-04-11T12:41:23.192Z,16.13
2018-04-11T12:43:50.684Z,15.63
2018-04-11T12:46:18.132Z,15.27
2018-04-11T12:48:45.591Z,14.60
2018-04-11T12:51:13.461Z,14.57
2018-04-11T12:53:40.924Z,15.50
2018-04-11T12:56:08.392Z,14.73
2018-04-11T12:58:35.888Z,15.20
2018-04-11T13:01:03.558Z,14.23
2018-04-11T13:03:31.052Z,14.50
2018-04-11T13:05:58.512Z,15.13
2018-04-11T13:08:25.985Z,13.90
2018-04-11T13:10:53.630Z,14.20
2018-04-11T13:13:21.112Z,13.47
2018-04-11T13:15:49.529Z,13.50
2018-04-11T13:18:16.990Z,14.30
2018-04-11T13:20:44.484Z,14.20
2018-04-11T13:23:11.929Z,15.53
2018-04-11T13:25:39.475Z,14.20
2018-04-11T13:28:06.881Z,14.00
2018-04-11T13:30:35.108Z,13.97
2018-04-11T13:33:02.592Z,14.47
2018-04-11T13:35:30.074Z,12.87
2018-04-11T13:37:58.325Z,13.47
2018-04-11T13:40:26.573Z,13.87
2018-04-11T13:42:54.057Z,14.10
2018-04-11T13:45:21.529Z,12.93
2018-04-11T13:47:49.135Z,12.77
2018-04-11T13:50:16.621Z,13.43
2018-04-11T13:52:44.097Z,12.80
2018-04-11T13:55:11.598Z,12.17
2018-04-11T13:57:39.061Z,11.87
2018-04-11T14:00:06.529Z,12.27
2018-04-11T14:02:34.033Z,11.17
2018-04-11T14:05:01.522Z,11.20
2018-04-11T14:07:29.017Z,11.40
2018-04-11T14:09:56.519Z,12.20
2018-04-11T14:12:24.773Z,10.80
2018-04-11T14:14:53.066Z,10.83
2018-04-11T14:17:21.352Z,11.03
2018-04-11T14:19:49.624Z,10.60
2018-04-11T14:22:17.068Z,10.20
2018-04-11T14:24:44.568Z,9.80
2018-04-11T14:27:12.068Z,9.70
2018-04-11T14:29:39.540Z,10.43
2018-04-11T14:32:07.008Z,10.23
2018-04-11T14:34:35.252Z,10.50
2018-04-11T14:37:02.762Z,9.50
2018-04-11T14:39:30.273Z,10.47
2018-04-11T14:41:57.744Z,9.97
2018-04-11T14:44:25.249Z,10.07
2018-04-11T14:46:52.760Z,9.47
2018-04-11T14:49:20.233Z,9.77
2018-04-11T14:51:47.683Z,9.90
2018-04-11T14:54:15.171Z,9.10
2018-04-11T14:56:42.644Z,9.27
2018-04-11T14:59:10.096Z,8.57
2018-04-11T15:01:37.618Z,8.80
2018-04-11T15:04:05.065Z,9.73
2018-04-11T15:06:32.523Z,9.20
2018-04-11T15:08:59.976Z,8.97
2018-04-11T15:11:27.572Z,8.87
2018-04-11T15:13:55.045Z,7.97
2018-04-11T15:16:22.508Z,8.20
2018-04-11T15:18:50.015Z,8.30
2018-04-11T15:21:18.437Z,8.00
2018-04-11T15:23:45.920Z,8.67
2018-04-11T15:26:13.398Z,8.63
2018-04-11T15:28:40.868Z,8.07
2018-04-11T15:31:09.145Z,8.80
2018-04-11T15:33:37.394Z,7.50
2018-04-11T15:36:04.876Z,8.47
2018-04-11T15:38:32.348Z,8.30
2018-04-11T15:41:00.572Z,8.13
2018-04-11T15:43:28.081Z,7.47
2018-04-11T15:45:55.588Z,7.73
2018-04-11T15:48:23.098Z,7.23
2018-04-11T15:50:50.556Z,8.77
2018-04-11T15:53:18.068Z,8.17
2018-04-11T15:55:45.521Z,7.63
2018-04-11T15:58:13.029Z,7.50
2018-04-11T16:00:41.277Z,7.87
2018-04-11T16:03:08.753Z,7.37
2018-04-11T16:05:37.112Z,7.33
2018-04-11T16:08:04.594Z,7.80
2018-04-11T16:10:32.101Z,7.17
2018-04-11T16:12:59.585Z,7.57
2018-04-11T16:15:27.060Z,7.47
2018-04-11T16:17:54.580Z,6.97
2018-04-11T16:20:22.817Z,7.00
2018-04-11T16:22:50.368Z,7.50
2018-04-11T16:25:18.635Z,7.20
2018-04-11T16:27:46.322Z,7.17
2018-04-11T16:30:13.820Z,7.23
2018-04-11T16:32:41.345Z,7.90
2018-04-11T16:35:08.820Z,6.93
2018-04-11T16:37:36.316Z,7.10
2018-04-11T16:40:03.773Z,7.37
2018-04-11T16:42:32.020Z,7.40
2018-04-11T16:44:59.521Z,7.10
2018-04-11T16:47:27.797Z,7.43
2018-04-11T16:49:56.040Z,7.10
2018-04-11T16:52:24.297Z,7.83
2018-04-11T16:54:52.537Z,7.43
2018-04-11T16:57:19.984Z,7.77
2018-04-11T16:59:47.480Z,7.63
2018-04-11T17:02:14.949Z,7.07
2018-04-11T17:04:42.440Z,7.33
2018-04-11T17:07:09.957Z,7.23
2018-04-11T17:09:37.423Z,7.47
2018-04-11T17:12:04.937Z,8.00
2018-04-11T17:14:33.186Z,7.63
2018-04-11T17:17:00.674Z,8.13
2018-04-11T17:19:28.184Z,7.77
2018-04-11T17:22:08.221Z,8.70
2018-04-11T17:24:47.516Z,9.73
2018-04-11T17:27:27.585Z,8.40
2018-04-11T17:30:06.897Z,9.50
2018-04-11T17:32:34.358Z,8.13
2018-04-11T17:35:02.594Z,8.73
2018-04-11T17:37:30.078Z,8.37
2018-04-11T17:39:57.584Z,8.40
2018-04-11T17:42:25.048Z,9.20
2018-04-11T17:44:52.516Z,9.10
2018-04-11T17:47:20.011Z,9.90
2018-04-11T17:49:47.476Z,9.63
2018-04-11T17:52:15.746Z,9.83
2018-04-11T17:54:43.196Z,9.43
2018-04-11T17:57:10.689Z,11.47
2018-04-11T17:59:38.166Z,10.27
2018-04-11T18:02:05.592Z,12.20
2018-04-11T18:04:33.105Z,11.30
2018-04-11T18:07:00.577Z,12.13
2018-04-11T18:09:28.092Z,11.23
2018-04-11T18:11:55.537Z,11.57
2018-04-11T18:14:23.024Z,12.23
2018-04-11T18:16:50.544Z,11.57
2018-04-11T18:19:17.960Z,13.37
2018-04-11T18:21:46.182Z,11.27
2018-04-11T18:24:14.436Z,12.20
2018-04-11T18:26:41.949Z,12.83
2018-04-11T18:29:09.425Z,11.50
2018-04-11T18:31:36.913Z,12.57
2018-04-11T18:34:05.214Z,12.40
2018-04-11T18:36:32.761Z,12.03
2018-04-11T18:39:00.222Z,13.10
2018-04-11T18:41:28.453Z,12.97
2018-04-11T18:43:55.941Z,12.53
2018-04-11T18:46:23.417Z,13.33
2018-04-11T18:48:51.645Z,14.10
2018-04-11T18:51:19.129Z,14.27
2018-04-11T18:53:46.589Z,13.40
2018-04-11T18:56:14.138Z,13.53
2018-04-11T18:58:42.388Z,14.90
2018-04-11T19:01:10.668Z,13.50
2018-04-11T19:03:38.140Z,13.03
2018-04-11T19:06:05.875Z,14.93
2018-04-11T19:08:33.358Z,15.73
2018-04-11T19:11:00.828Z,13.90
2018-04-11T19:13:28.317Z,13.53
2018-04-11T19:15:55.858Z,16.13
2018-04-11T19:18:24.084Z,14.27
2018-04-11T19:20:51.560Z,15.90
2018-04-11T19:23:19.818Z,14.87
2018-04-11T19:25:47.288Z,15.77
2018-04-11T19:28:14.779Z,15.80
2018-04-11T19:30:42.240Z,16.27
2018-04-11T19:33:10.489Z,15.70
2018-04-11T19:35:37.955Z,15.40
2018-04-11T19:38:05.518Z,15.47
2018-04-11T19:40:32.963Z,15.33
2018-04-11T19:43:00.445Z,14.97
2018-04-11T19:45:27.919Z,14.57
2018-04-11T19:47:55.371Z,13.40
2018-04-11T19:50:22.830Z,14.07
2018-04-11T19:52:50.322Z,13.20
2018-04-11T19:55:17.831Z,13.40
2018-04-11T19:57:46.072Z,12.50
2018-04-11T20:00:13.541Z,12.90
2018-04-11T20:02:41.037Z,13.60
2018-04-11T20:05:08.554Z,11.73
2018-04-11T20:07:36.006Z,13.07
2018-04-11T20:10:03.518Z,12.87
2018-04-11T20:12:30.971Z,12.00
2018-04-11T20:14:58.432Z,12.33
2018-04-11T20:17:25.981Z,12.50
2018-04-11T20:19:53.442Z,12.77
2018-04-11T20:22:20.944Z,12.63
2018-04-11T20:24:49.974Z,11.93
2018-04-11T20:27:17.442Z,12.37
2018-04-11T20:29:45.694Z,12.17
2018-04-11T20:32:13.166Z,10.97
2018-04-11T20:34:41.433Z,11.53
2018-04-11T20:37:09.660Z,11.37
2018-04-11T20:39:37.141Z,11.13
2018-04-11T20:42:04.625Z,11.27
2018-04-11T20:44:32.843Z,11.47
2018-04-11T20:47:00.301Z,11.43
2018-04-11T20:49:27.813Z,11.67
2018-04-11T20:51:55.268Z,10.47
2018-04-11T20:54:22.725Z,11.17
2018-04-11T20:56:50.204Z,10.40
2018-04-11T20:59:17.670Z,10.47
2018-04-11T21:01:45.120Z,11.70
2018-04-11T21:04:12.600Z,10.13
2018-04-11T21:06:40.096Z,10.70
2018-04-11T21:09:07.648Z,11.00
2018-04-11T21:11:35.125Z,11.33
2018-04-11T21:14:02.610Z,11.43
2018-04-11T21:16:30.812Z,11.63
2018-04-11T21:18:59.289Z,11.20
2018-04-11T21:21:26.748Z,11.10
2018-04-11T21:23:54.232Z,11.03
2018-04-11T21:26:21.728Z,11.57
2018-04-11T21:28:49.963Z,11.63
2018-04-11T21:31:17.441Z,11.20
2018-04-11T21:33:44.937Z,12.30
2018-04-11T21:36:12.389Z,10.87
2018-04-11T21:38:39.864Z,11.37
2018-04-11T21:41:07.324Z,11.40
2018-04-11T21:43:34.813Z,10.50
2018-04-11T21:46:02.274Z,11.93
2018-04-11T21:48:29.781Z,10.50
2018-04-11T21:50:57.306Z,10.97
2018-04-11T21:53:24.748Z,11.37
2018-04-11T21:55:52.223Z,10.37
2018-04-11T21:58:20.445Z,10.77
2018-04-11T22:00:47.942Z,10.47
2018-04-11T22:03:15.404Z,9.40
2018-04-11T22:05:42.908Z,10.10
2018-04-11T22:08:10.385Z,9.90
2018-04-11T22:10:37.869Z,10.50
2018-04-11T22:13:05.377Z,10.00
2018-04-11T22:15:32.834Z,10.30
2018-04-11T22:18:00.301Z,10.80
2018-04-11T22:20:27.779Z,10.07
2018-04-11T22:22:55.240Z,9.73
2018-04-11T22:25:22.736Z,9.30
2018-04-11T22:27:50.952Z,9.93
2018-04-11T22:30:18.449Z,9.47
2018-04-11T22:32:45.919Z,9.90
2018-04-11T22:35:13.400Z,10.17
2018-04-11T22:37:40.872Z,11.03
2018-04-11T22:40:08.360Z,10.17
2018-04-11T22:42:35.799Z,10.27
2018-04-11T22:45:03.308Z,10.87
2018-04-11T22:47:31.592Z,10.63
2018-04-11T22:49:59.814Z,9.43
2018-04-11T22:52:27.312Z,10.33
2018-04-11T22:54:54.788Z,10.43
2018-04-11T22:57:22.282Z,10.50
2018-04-11T22:59:49.753Z,10.33
2018-04-11T23:02:17.311Z,10.67
2018-04-11T23:04:44.801Z,10.53
2018-04-11T23:07:12.310Z,10.70
2018-04-11T23:09:39.767Z,10.60
2018-04-11T23:12:07.284Z,10.40
2018-04-11T23:14:35.505Z,10.63
2018-04-11T23:17:02.998Z,10.03
2018-04-11T23:19:30.472Z,9.83
2018-04-11T23:21:57.934Z,9.87
2018-04-11T23:24:26.224Z,10.30
2018-04-11T23:26:54.448Z,9.17
2018-04-11T23:29:21.933Z,10.43
2018-04-11T23:31:49.423Z,9.63
2018-04-11T23:34:16.884Z,9.57
2018-04-11T23:36:44.384Z,10.50
2018-04-11T23:39:11.839Z,9.00
2018-04-11T23:41:40.097Z,10.33
2018-04-11T23:44:07.560Z,9.83
2018-04-11T23:46:35.053Z,10.03
2018-04-11T23:49:02.513Z,10.43
2018-04-11T23:51:30.732Z,9.90
2018-04-11T23:53:58.213Z,10.53
2018-04-11T23:56:25.702Z,9.67
2018-04-11T23:58:53.208Z,11.20
